WEATHER DATA

YESTERDAY
Time Temp. Dewp. Hum. Wind dir Wind speed Wind gust Bar. 1h Prec. 24h Prec.
00:07 0.9 -1.5 83 226 1.1 1.9 1016.4 0.0000 0.0000
00:17 0.7 -1.6 83 226 1.1 2.5 1016.3 0.0000 0.0000
00:27 0.5 -1.8 83 262 1.1 2.2 1016.2 0.0000 0.0000
00:37 0.4 -1.9 83 270 1.1 2.2 1016.1 0.0000 0.0000
00:47 0.3 -2 83 260 1.1 1.9 1016 0.0000 0.0000
00:58 0.2 -1.9 84 237 1.1 2.5 1015.9 0.0000 0.0000
01:07 0.1 -2 84 221 1.4 2.8 1015.8 0.0000 0.0000
01:17 0.1 -2 84 228 1.7 2.5 1015.7 0.0000 0.0000
01:27 0.1 -1.9 85 236 1.7 2.2 1015.6 0.0000 0.0000
01:38 0.2 -1.8 85 240 1.4 2.2 1015.6 0.0000 0.0000
01:48 0.2 -1.8 85 223 1.1 2.5 1015.6 0.0000 0.0000
01:57 0.3 -1.7 85 239 1.4 2.2 1015.6 0.0000 0.0000
02:08 0.3 -1.7 85 251 1.4 2.8 1015.6 0.0000 0.0000
02:18 0.4 -1.6 85 242 1.1 1.9 1015.7 0.0000 0.0000
02:28 0.3 -1.7 85 228 1.4 2.2 1015.6 0.0000 0.0000
02:37 0.2 -1.8 85 240 1.7 2.5 1015.7 0.0000 0.0000
02:48 0 -2 85 250 1.4 2.5 1015.5 0.0000 0.0000
02:58 -0.2 -2.2 85 253 1.1 1.9 1015.5 0.0000 0.0000
03:08 -0.3 -2.3 85 270 1.4 2.5 1015.4 0.0000 0.0000
03:18 -0.5 -2.5 85 237 1.1 1.9 1015.3 0.0000 0.0000
03:28 -0.7 -2.6 85 243 1.7 2.8 1015.2 0.0000 0.0000
03:38 -0.7 -2.5 86 245 1.9 3.1 1015.1 0.0000 0.0000
03:48 -0.6 -2.4 86 251 1.4 2.5 1015 0.0000 0.0000
03:59 -0.5 -2.3 86 259 1.1 2.2 1014.9 0.0000 0.0000
04:08 -0.3 -2.1 86 292 1.1 2.2 1014.8 0.0000 0.0000
04:18 -0.3 -2.1 86 315 0.8 1.7 1014.7 0.0000 0.0000
04:29 -0.3 -2.1 86 256 1.1 1.7 1014.8 0.0000 0.0000
04:39 -0.4 -2.2 86 235 1.4 2.2 1014.9 0.0000 0.0000
04:49 -0.6 -2.4 86 218 1.4 2.2 1014.9 0.0000 0.0000
04:58 -0.6 -2.4 86 239 1.1 2.5 1014.9 0.0000 0.0000
05:09 -0.6 -2.3 87 256 1.1 2.5 1014.8 0.0000 0.0000
05:19 -0.5 -2.2 87 257 0.8 1.9 1014.9 0.0000 0.0000
05:29 -0.4 -2.1 87 270 0.8 1.9 1014.9 0.0000 0.0000
05:39 -0.3 -2 87 259 1.1 2.2 1014.9 0.0000 0.0000
05:59 -0.1 -1.8 87 270 0.6 1.1 1014.9 0.0000 0.0000
06:09 0 -1.7 87 325 0.6 1.1 1015 0.0000 0.0000
06:20 0.1 -1.6 87 270 0.8 2.2 1015.1 0.0000 0.0000
06:29 0.2 -1.5 87 270 0.6 1.4 1015.2 0.0000 0.0000
06:39 0.2 -1.5 87 270 0.3 1.1 1015.2 0.0000 0.0000
06:50 0.3 -1.4 87 315 0.3 0.8 1015.3 0.0000 0.0000
07:00 0.3 -1.4 87 318 0.3 0.8 1015.4 0.0000 0.0000
07:09 0.3 -1.4 87 270 0.6 1.1 1015.5 0.0000 0.0000
07:19 0.4 -1.3 87 270 0.6 1.4 1015.5 0.0000 0.0000
07:30 0.4 -1.3 87 270 0.3 1.4 1015.6 0.0000 0.0000
07:40 0.4 -1.3 87 299 0.6 1.1 1015.6 0.0000 0.0000
07:50 0.4 -1.3 87 315 0.6 1.1 1015.7 0.0000 0.0000
08:00 0.5 -1.2 87 270 0.6 1.4 1015.7 0.0000 0.0000
08:10 0.5 -1.2 87 247 0.6 1.7 1015.8 0.0000 0.0000
08:20 0.6 -1.2 87 246 0.8 2.2 1015.9 0.0000 0.0000
08:30 0.6 -1.2 87 251 0.6 1.7 1015.9 0.0000 0.0000
08:40 0.7 -1.1 87 253 0.6 1.7 1015.9 0.0000 0.0000
08:50 0.7 -1.1 87 239 0.8 1.7 1015.9 0.0000 0.0000
09:00 0.8 -1 87 289 1.4 2.5 1015.9 0.0000 0.0000
09:11 0.9 -0.9 87 279 1.4 2.5 1015.9 0.0000 0.0000
09:21 1 -0.8 87 298 1.7 3.1 1016.1 0.0000 0.0000
09:30 1.2 -0.6 87 250 1.1 2.5 1016.3 0.0000 0.0000
09:40 1.2 -0.5 88 284 1.4 2.8 1016.3 0.0000 0.0000
09:51 1.4 -0.3 88 298 1.7 2.8 1016.3 0.0000 0.0000
10:01 1.5 -0.2 88 270 1.7 3.9 1016.3 0.0000 0.0000
10:10 1.6 -0.1 88 244 1.7 3.9 1016.3 0.1010 0.1000
10:21 1.8 0 88 270 1.9 4.2 1016.3 0.1010 0.1000
10:31 1.9 0.1 88 262 1.7 3.9 1016.3 0.1010 0.1000
10:40 2 0.2 88 253 1.7 4.4 1016.4 0.3030 0.3000
10:51 2.1 0.3 88 270 2.2 4.2 1016.4 0.3030 0.3000
11:01 2.2 0.4 88 284 2.2 4.7 1016.5 0.3030 0.4000
11:11 2.3 0.5 88 286 1.9 3.9 1016.5 0.3030 0.4000
11:20 2.4 0.6 88 255 1.4 4.4 1016.5 0.3030 0.4000
11:31 2.6 0.8 88 281 2.2 4.4 1016.5 0.3030 0.4000
11:41 2.7 0.9 88 231 1.4 4.2 1016.5 0.1010 0.4000
11:51 2.8 1 88 228 1.4 2.5 1016.3 0.0000 0.4000
12:01 2.9 1.1 88 228 1.7 3.1 1016.2 0.0000 0.4000
12:11 3.1 1.3 88 219 1.1 2.2 1016.2 0.0000 0.4000
12:21 3.2 1.4 88 234 1.7 3.1 1016.2 0.0000 0.4000
12:31 3.4 1.4 87 225 1.4 2.5 1016.1 0.0000 0.4000
12:42 3.5 1.5 87 231 1.1 2.2 1016 0.0000 0.4000
12:52 3.6 1.6 87 225 1.4 2.5 1015.9 0.0000 0.4000
13:01 3.8 1.8 87 292 1.4 2.5 1015.9 0.0000 0.4000
13:12 4 2 87 340 1.4 3.1 1015.9 0.0000 0.4000
13:22 4.1 2.1 87 18 1.4 2.5 1015.9 0.0000 0.4000
13:32 4.3 2.3 87 45 1.4 3.1 1015.8 0.0000 0.4000
13:48 4.7 2.6 86 15 1.7 6.1 1015.8 0.0000 0.4000
13:58 4.9 2.8 86 8 1.9 6.4 1015.8 0.0000 0.4000
14:08 5.1 2.8 85 2 1.7 3.3 1015.8 0.0000 0.4000
14:18 5.3 2.8 84 0 2.2 6.4 1015.8 0.0000 0.4000
14:28 5.5 2.8 83 7 2.2 4.7 1015.9 0.0000 0.4000
14:39 5.5 2.5 81 9 2.5 5.8 1016 0.0000 0.4000
14:48 5.5 2.3 80 338 1.9 4.7 1016.1 0.0000 0.4000
14:58 5.5 2.2 79 304 1.7 3.9 1016.2 0.0000 0.4000
15:09 5.5 2.2 79 319 1.9 4.7 1016.3 0.0000 0.4000
15:19 5.5 2.2 79 270 1.4 4.7 1016.3 0.0000 0.4000
15:28 5.6 2.1 78 256 1.4 3.1 1016.4 0.0000 0.4000
15:38 5.6 2.1 78 280 1.4 2.8 1016.5 0.0000 0.4000
15:49 5.7 2.2 78 304 1.9 4.2 1016.5 0.0000 0.4000
15:59 5.7 2 77 319 1.9 4.7 1016.6 0.0000 0.4000
16:09 5.7 2 77 331 3.1 6.4 1016.6 0.0000 0.4000
16:19 5.7 1.8 76 321 4.7 8.6 1016.7 0.0000 0.4000
16:29 5.6 1.7 76 320 3.9 7.2 1016.7 0.0000 0.4000
16:39 5.5 1.6 76 323 3.6 5.6 1016.8 0.0000 0.4000
16:49 5.4 1.5 76 327 3.3 5.3 1016.9 0.0000 0.4000
16:59 5.4 1.3 75 332 1.7 3.3 1017 0.0000 0.4000
17:09 5.3 1.2 75 339 1.4 3.3 1017.1 0.0000 0.4000
17:19 5.2 1.1 75 344 1.7 3.3 1017.2 0.0000 0.4000
17:40 5 0.9 75 349 2.2 4.7 1017.4 0.0000 0.4000
17:49 4.9 0.8 75 352 1.7 4.2 1017.6 0.0000 0.4000
17:59 4.8 0.8 75 1 2.2 5 1017.8 0.0000 0.4000
18:10 4.7 0.8 76 352 1.4 3.1 1017.8 0.0000 0.4000
18:20 4.6 0.7 76 345 1.1 2.5 1017.9 0.0000 0.4000
18:29 4.5 0.6 76 358 1.1 2.8 1018 0.0000 0.4000
18:40 4.4 0.7 77 356 1.4 2.8 1018.1 0.0000 0.4000
18:50 4.4 0.7 77 351 1.4 3.1 1018.3 0.0000 0.4000
19:00 4.3 0.6 77 315 0.6 1.1 1018.3 0.0000 0.4000
19:10 4.3 0.6 77 355 0.8 1.9 1018.4 0.0000 0.4000
19:20 4.2 0.7 78 315 0.6 1.1 1018.4 0.0000 0.4000
19:30 4.1 0.6 78 331 0.6 0.8 1018.5 0.0000 0.4000
19:40 4.1 0.6 78 285 0.6 1.1 1018.6 0.0000 0.4000
19:51 4.1 0.6 78 270 0.8 1.7 1018.7 0.0000 0.4000
20:01 4 0.5 78 249 0.6 1.1 1018.7 0.0000 0.4000
20:10 4 0.7 79 236 0.8 1.7 1018.8 0.0000 0.4000
20:20 3.9 0.6 79 235 0.8 1.9 1018.8 0.0000 0.4000
20:31 3.9 0.6 79 241 0.8 1.7 1018.9 0.0000 0.4000
20:41 3.9 0.6 79 243 0.8 1.9 1019 0.0000 0.4000
20:50 3.8 0.5 79 242 0.8 1.7 1019.1 0.0000 0.4000
21:01 3.8 0.7 80 232 0.8 1.9 1019.1 0.0000 0.4000
21:11 3.8 0.7 80 257 0.8 1.7 1019.1 0.0000 0.4000
21:21 3.8 0.7 80 234 0.8 1.7 1019.2 0.0000 0.4000
21:31 3.7 0.6 80 255 0.8 1.4 1019.3 0.0000 0.4000
21:41 3.7 0.6 80 225 0.6 1.1 1019.3 0.0000 0.4000
21:51 3.7 0.6 80 240 0.6 1.4 1019.3 0.0000 0.4000
22:01 3.6 0.5 80 236 0.8 1.9 1019.4 0.0000 0.4000
22:12 3.6 0.5 80 237 0.8 1.9 1019.4 0.0000 0.4000
22:21 3.6 0.5 80 231 0.8 1.9 1019.3 0.0000 0.4000
22:31 3.5 0.6 81 243 1.7 3.3 1019.2 0.0000 0.4000
22:41 3.5 0.6 81 244 1.4 2.5 1019.2 0.0000 0.4000
22:52 3.4 0.5 81 244 1.1 1.9 1019.3 0.0000 0.4000
23:02 3.4 0.5 81 240 1.4 3.3 1019.3 0.0000 0.4000
23:11 3.3 0.4 81 285 0.8 1.7 1019.3 0.0000 0.4000
23:22 3.3 0.4 81 257 0.8 1.7 1019.3 0.0000 0.4000
23:32 3.2 0.4 82 243 1.1 2.5 1019.3 0.0000 0.4000
23:42 3.2 0.4 82 244 0.8 1.4 1019.2 0.0000 0.4000
23:52 3.2 0.4 82 245 0.8 2.2 1019.2 0.0000

DAY STATISTIC

2023-01-31
TEMPERATURE
AVERAGE
2.4
HIGH
5.7
15:49
LOW
-0.7
03:28
PRESSURE
AVERAGE
1016.7
HIGH
1019.4
22:01
LOW
1014.7
04:18
DEWPOINT
AVERAGE
-0.1
HIGH
2.8
13:58
LOW
-2.6
03:28
HUMIDITY
AVERAGE
83
HIGH
88
09:40
LOW
75
16:59
WIND SPEED
AVERAGE
1.3
HIGH
4.7
16:19
WIND GUST
AVERAGE
2.7
HIGH
8.6
16:19
WIND DIRECTION
PREVAILING
SW
35%
N
14.3
NE
0.7
E
0.0
SE
0.0
S
0.0
SW
35.0
W
35.0
NW
15.0
PRECIPITATION
RAIN HOUR
0.3
RAIN DAY
0.4
TEMPERATURE (°C)
LOW
-0.7
HIGH
5.7
AVERAGE
2.4
PRESSURE (hpa)
LOW
1014.7
HIGH
1019.4
AVERAGE
1016.7
DEVICE